createdAt,value
2018-09-11T01:00:32.078Z,64.53
2018-09-11T01:01:32.020Z,64.43
2018-09-11T01:02:32.009Z,64.93
2018-09-11T01:03:32.053Z,64.93
2018-09-11T01:04:31.985Z,64.56
2018-09-11T01:05:31.975Z,65.26
2018-09-11T01:06:32.006Z,65.16
2018-09-11T01:07:31.953Z,65.06
2018-09-11T01:08:31.992Z,65.16
2018-09-11T01:09:31.930Z,65.26
2018-09-11T01:10:31.919Z,65.67
2018-09-11T01:11:31.910Z,65.47
2018-09-11T01:12:31.902Z,66.47
2018-09-11T01:13:31.884Z,66.10
2018-09-11T01:14:31.920Z,66.30
2018-09-11T01:15:31.868Z,66.30
2018-09-11T01:16:31.850Z,66.10
2018-09-11T01:17:31.837Z,66.10
2018-09-11T01:18:31.845Z,66.30
2018-09-11T01:19:31.866Z,66.30
2018-09-11T01:20:31.813Z,66.71
2018-09-11T01:21:31.797Z,66.40
2018-09-11T01:22:31.787Z,66.60
2018-09-11T01:23:31.774Z,66.20
2018-09-11T01:24:31.805Z,66.60
2018-09-11T01:25:31.756Z,66.20
2018-09-11T01:26:31.736Z,66.50
2018-09-11T01:27:31.726Z,65.39
2018-09-11T01:28:31.715Z,65.50
2018-09-11T01:29:31.754Z,65.19
2018-09-11T01:30:31.693Z,65.09
2018-09-11T01:31:31.682Z,65.19
2018-09-11T01:32:31.668Z,64.99
2018-09-11T01:33:31.661Z,65.09
2018-09-11T01:34:31.693Z,65.36
2018-09-11T01:35:31.641Z,65.06
2018-09-11T01:36:31.625Z,65.06
2018-09-11T01:37:31.613Z,65.19
2018-09-11T01:38:31.602Z,64.96
2018-09-11T01:39:31.635Z,65.30
2018-09-11T01:40:31.594Z,64.66
2018-09-11T01:41:31.572Z,64.96
2018-09-11T01:42:31.558Z,65.16
2018-09-11T01:43:31.579Z,64.76
2018-09-11T01:44:31.579Z,64.56
2018-09-11T01:45:31.524Z,64.59
2018-09-11T01:46:31.512Z,64.79
2018-09-11T01:47:31.502Z,64.69
2018-09-11T01:48:31.494Z,64.59
2018-09-11T01:49:31.659Z,65.26
2018-09-11T01:50:31.470Z,65.19
2018-09-11T01:51:31.456Z,64.79
2018-09-11T01:52:31.445Z,65.80
2018-09-11T01:53:31.434Z,65.39
2018-09-11T01:54:31.472Z,65.02
2018-09-11T01:55:31.412Z,65.19
2018-09-11T01:56:31.400Z,65.50
2018-09-11T01:57:31.389Z,66.50
2018-09-11T01:58:31.379Z,66.40
2018-09-11T01:59:31.414Z,66.50
2018-09-11T02:00:31.379Z,66.20
2018-09-11T02:01:31.344Z,66.23
2018-09-11T02:02:31.332Z,66.30
2018-09-11T02:03:31.322Z,65.33
2018-09-11T02:04:31.357Z,65.22
2018-09-11T02:05:31.298Z,66.63
2018-09-11T02:06:31.289Z,66.43
2018-09-11T02:07:31.276Z,66.23
2018-09-11T02:08:31.266Z,65.93
2018-09-11T02:09:31.297Z,66.23
2018-09-11T02:10:31.241Z,66.13
2018-09-11T02:11:31.229Z,66.23
2018-09-11T02:12:31.219Z,66.13
2018-09-11T02:13:31.208Z,66.03
2018-09-11T02:14:31.240Z,66.43
2018-09-11T02:15:31.186Z,66.63
2018-09-11T02:16:31.182Z,66.23
2018-09-11T02:17:31.164Z,66.43
2018-09-11T02:18:31.150Z,66.03
2018-09-11T02:19:31.185Z,65.33
2018-09-11T02:20:31.128Z,66.53
2018-09-11T02:21:31.131Z,66.53
2018-09-11T02:22:31.106Z,66.33
2018-09-11T02:23:31.095Z,66.23
2018-09-11T02:24:31.142Z,66.33
2018-09-11T02:25:31.071Z,66.23
2018-09-11T02:26:31.060Z,66.43
2018-09-11T02:27:31.057Z,66.13
2018-09-11T02:28:31.037Z,66.33
2018-09-11T02:29:31.072Z,66.23
2018-09-11T02:30:31.020Z,66.33
2018-09-11T02:31:31.015Z,66.43
2018-09-11T02:32:30.993Z,66.56
2018-09-11T02:33:30.987Z,66.53
2018-09-11T02:34:31.016Z,66.56
2018-09-11T02:35:30.959Z,66.13
2018-09-11T02:36:30.950Z,66.53
2018-09-11T02:37:30.939Z,66.56
2018-09-11T02:38:30.928Z,67.07
2018-09-11T02:39:30.960Z,66.77
2018-09-11T02:40:30.902Z,67.17
2018-09-11T02:41:30.894Z,67.17
2018-09-11T02:42:30.883Z,67.37
2018-09-11T02:43:30.870Z,67.17
2018-09-11T02:44:30.902Z,67.17
2018-09-11T02:45:30.847Z,67.17
2018-09-11T02:46:30.834Z,67.27
2018-09-11T02:47:30.826Z,67.27
2018-09-11T02:48:30.815Z,67.37
2018-09-11T02:49:30.849Z,68.18
2018-09-11T02:50:30.789Z,67.68
2018-09-11T02:51:30.791Z,68.08
2018-09-11T02:52:30.766Z,67.47
2018-09-11T02:53:30.764Z,67.68
2018-09-11T02:54:30.789Z,67.57
2018-09-11T02:55:30.737Z,67.77
2018-09-11T02:56:30.721Z,67.68
2018-09-11T02:57:30.713Z,67.77
2018-09-11T02:58:30.699Z,68.78
2018-09-11T02:59:30.732Z,67.50
2018-09-11T03:00:30.680Z,67.37
2018-09-11T03:01:30.678Z,67.68
2018-09-11T03:02:30.654Z,68.18
2018-09-11T03:03:30.645Z,67.68
2018-09-11T03:04:30.677Z,67.68
2018-09-11T03:05:30.620Z,68.18
2018-09-11T03:06:30.607Z,67.57
2018-09-11T03:07:30.597Z,67.57
2018-09-11T03:08:30.591Z,67.88
2018-09-11T03:09:30.621Z,68.68
2018-09-11T03:10:30.562Z,68.51
2018-09-11T03:11:30.554Z,68.08
2018-09-11T03:12:30.540Z,68.41
2018-09-11T03:13:30.554Z,68.21
2018-09-11T03:14:30.563Z,68.51
2018-09-11T03:15:30.506Z,68.81
2018-09-11T03:16:30.498Z,68.85
2018-09-11T03:17:30.484Z,69.25
2018-09-11T03:18:30.474Z,69.65
2018-09-11T03:19:30.510Z,69.25
2018-09-11T03:20:30.452Z,69.75
2018-09-11T03:21:30.438Z,70.15
2018-09-11T03:22:30.428Z,70.79
2018-09-11T03:23:30.417Z,71.10
2018-09-11T03:24:30.454Z,71.10
2018-09-11T03:25:30.393Z,71.60
2018-09-11T03:26:30.387Z,72.04
2018-09-11T03:27:30.372Z,72.24
2018-09-11T03:28:30.360Z,71.94
2018-09-11T03:29:30.348Z,72.14
2018-09-11T03:30:30.383Z,72.54
2018-09-11T03:31:30.326Z,72.34
2018-09-11T03:32:30.318Z,72.75
2018-09-11T03:33:30.302Z,73.18
2018-09-11T03:34:30.292Z,73.18
2018-09-11T03:35:30.327Z,73.18
2018-09-11T03:36:30.270Z,73.18
2018-09-11T03:37:30.256Z,73.58
2018-09-11T03:38:30.246Z,73.28
2018-09-11T03:39:30.234Z,73.79
2018-09-11T03:40:30.273Z,73.89
2018-09-11T03:41:30.217Z,73.89
2018-09-11T03:42:30.202Z,74.93
2018-09-11T03:43:30.191Z,74.60
2018-09-11T03:44:30.181Z,73.82
2018-09-11T03:45:30.215Z,74.29
2018-09-11T03:46:30.176Z,74.09
2018-09-11T03:47:30.150Z,74.19
2018-09-11T03:48:30.134Z,74.22
2018-09-11T03:49:30.122Z,74.80
2018-09-11T03:50:30.173Z,74.73
2018-09-11T03:51:30.103Z,74.73
2018-09-11T03:52:30.090Z,74.90
2018-09-11T03:53:30.078Z,74.53
2018-09-11T03:54:30.064Z,74.93
2018-09-11T03:55:30.105Z,74.22
2018-09-11T03:56:30.043Z,74.22
2018-09-11T03:57:30.034Z,74.43
2018-09-11T03:58:30.025Z,75.04
2018-09-11T03:59:30.015Z,74.02
2018-09-11T04:00:30.044Z,74.93
2018-09-11T04:01:29.989Z,75.34
2018-09-11T04:02:29.977Z,74.93
2018-09-11T04:03:29.961Z,75.24
2018-09-11T04:04:29.953Z,75.54
2018-09-11T04:05:30.069Z,75.04
2018-09-11T04:06:29.927Z,75.34
2018-09-11T04:07:29.921Z,74.63
2018-09-11T04:08:29.903Z,74.73
2018-09-11T04:09:29.894Z,74.53
2018-09-11T04:10:29.927Z,74.84
2018-09-11T04:11:29.871Z,75.44
2018-09-11T04:12:29.860Z,75.04
2018-09-11T04:13:29.847Z,75.04
2018-09-11T04:14:29.835Z,75.13
2018-09-11T04:15:29.872Z,75.44
2018-09-11T04:16:29.811Z,75.64
2018-09-11T04:17:29.803Z,75.68
2018-09-11T04:18:29.793Z,75.95
2018-09-11T04:19:29.778Z,75.54
2018-09-11T04:20:29.813Z,75.64
2018-09-11T04:21:29.754Z,74.84
2018-09-11T04:22:29.742Z,74.93
2018-09-11T04:23:29.743Z,75.13
2018-09-11T04:24:29.721Z,75.13
2018-09-11T04:25:29.800Z,75.54
2018-09-11T04:26:29.700Z,75.95
2018-09-11T04:27:29.694Z,75.68
2018-09-11T04:28:29.676Z,75.48
2018-09-11T04:29:29.669Z,75.37
2018-09-11T04:30:29.697Z,75.98
2018-09-11T04:31:29.642Z,75.98
2018-09-11T04:32:29.629Z,75.98
2018-09-11T04:33:29.622Z,76.08
2018-09-11T04:34:29.607Z,75.78
2018-09-11T04:35:29.645Z,76.28
2018-09-11T04:36:29.654Z,76.18
2018-09-11T04:37:29.574Z,75.98
2018-09-11T04:38:29.560Z,76.32
2018-09-11T04:39:29.549Z,76.32
2018-09-11T04:40:29.584Z,76.12
2018-09-11T04:41:29.526Z,76.02
2018-09-11T04:42:29.523Z,76.12
2018-09-11T04:43:29.503Z,75.92
2018-09-11T04:44:29.492Z,76.08
2018-09-11T04:45:29.529Z,75.88
2018-09-11T04:46:29.470Z,76.18
2018-09-11T04:47:29.459Z,76.18
2018-09-11T04:48:29.448Z,76.48
2018-09-11T04:49:29.440Z,76.18
2018-09-11T04:50:29.424Z,75.68
2018-09-11T04:51:29.457Z,75.68
2018-09-11T04:52:29.401Z,75.68
2018-09-11T04:53:29.397Z,75.64
2018-09-11T04:54:29.380Z,75.04
2018-09-11T04:55:29.369Z,74.93
2018-09-11T04:56:29.402Z,75.04
2018-09-11T04:57:29.350Z,75.64
2018-09-11T04:58:29.351Z,75.57
2018-09-11T04:59:29.325Z,76.08
2018-09-11T05:00:29.309Z,75.88
2018-09-11T05:01:29.352Z,76.59
2018-09-11T05:02:29.289Z,76.39
2018-09-11T05:03:29.280Z,76.08
2018-09-11T05:04:29.269Z,76.69
2018-09-11T05:05:29.292Z,76.59
2018-09-11T05:06:29.294Z,76.32
2018-09-11T05:07:29.239Z,76.82
2018-09-11T05:08:29.221Z,76.82
2018-09-11T05:09:29.216Z,76.52
2018-09-11T05:10:29.203Z,76.32
2018-09-11T05:11:29.238Z,76.79
2018-09-11T05:12:29.177Z,76.62
2018-09-11T05:13:29.167Z,77.23
2018-09-11T05:14:29.157Z,76.93
2018-09-11T05:15:29.146Z,77.23
2018-09-11T05:16:29.177Z,77.23
2018-09-11T05:17:29.122Z,77.33
2018-09-11T05:18:29.110Z,77.43
2018-09-11T05:19:29.100Z,77.33
2018-09-11T05:20:29.095Z,77.64
2018-09-11T05:21:29.128Z,77.23
2018-09-11T05:22:29.065Z,77.43
2018-09-11T05:23:29.055Z,78.24
2018-09-11T05:24:29.047Z,78.17
2018-09-11T05:25:29.033Z,77.67
2018-09-11T05:26:29.084Z,77.43
2018-09-11T05:27:29.146Z,77.37
2018-09-11T05:28:29.001Z,77.13
2018-09-11T05:29:28.989Z,77.23
2018-09-11T05:30:28.979Z,78.24
2018-09-11T05:31:29.015Z,77.94
2018-09-11T05:32:28.964Z,77.97
2018-09-11T05:33:28.944Z,78.04
2018-09-11T05:34:28.931Z,77.87
2018-09-11T05:35:28.921Z,77.87
2018-09-11T05:36:28.962Z,77.37
2018-09-11T05:37:28.902Z,78.17
2018-09-11T05:38:28.888Z,77.94
2018-09-11T05:39:28.875Z,78.34
2018-09-11T05:40:28.866Z,77.73
2018-09-11T05:41:28.907Z,78.24
2018-09-11T05:42:28.844Z,78.17
2018-09-11T05:43:28.835Z,78.14
2018-09-11T05:44:28.821Z,78.14
2018-09-11T05:45:28.809Z,78.04
2018-09-11T05:46:28.798Z,77.94
2018-09-11T05:47:28.834Z,78.14
2018-09-11T05:48:28.777Z,78.14
2018-09-11T05:49:28.767Z,77.33
2018-09-11T05:50:28.754Z,77.43
2018-09-11T05:51:28.744Z,76.79
2018-09-11T05:52:28.775Z,76.79
2018-09-11T05:53:28.720Z,76.48
2018-09-11T05:54:28.713Z,76.39
2018-09-11T05:55:28.705Z,76.39
2018-09-11T05:56:28.690Z,76.18
2018-09-11T05:57:28.723Z,75.95
2018-09-11T05:58:28.724Z,75.84
2018-09-11T05:59:28.656Z,76.04
2018-09-11T06:00:28.640Z,76.04
2018-09-11T06:01:28.630Z,75.98
2018-09-11T06:02:28.668Z,75.95
2018-09-11T06:03:28.613Z,76.04
2018-09-11T06:04:28.603Z,76.35
2018-09-11T06:05:28.615Z,76.04
2018-09-11T06:06:28.573Z,76.01
2018-09-11T06:07:28.611Z,75.64
2018-09-11T06:08:28.553Z,75.81
2018-09-11T06:09:28.540Z,75.40
2018-09-11T06:10:28.531Z,75.00
2018-09-11T06:11:28.532Z,75.51
2018-09-11T06:12:28.553Z,75.00
2018-09-11T06:13:28.494Z,75.20
2018-09-11T06:14:28.485Z,75.31
2018-09-11T06:15:28.474Z,75.20
2018-09-11T06:16:28.464Z,75.51
2018-09-11T06:17:28.501Z,75.51
2018-09-11T06:18:28.437Z,75.00
2018-09-11T06:19:28.427Z,74.36
2018-09-11T06:20:28.418Z,74.29
2018-09-11T06:21:28.404Z,74.36
2018-09-11T06:22:28.441Z,74.46
2018-09-11T06:23:28.387Z,74.66
2018-09-11T06:24:28.370Z,74.66
2018-09-11T06:25:28.361Z,74.46
2018-09-11T06:26:28.348Z,74.66
2018-09-11T06:27:30.212Z,73.75
2018-09-11T06:28:28.333Z,74.05
2018-09-11T06:29:28.315Z,73.96
2018-09-11T06:30:28.304Z,74.66
2018-09-11T06:31:28.337Z,74.66
2018-09-11T06:32:28.288Z,74.05
2018-09-11T06:33:28.312Z,73.72
2018-09-11T06:34:28.261Z,73.82
2018-09-11T06:35:28.301Z,74.02
2018-09-11T06:36:28.235Z,73.62
2018-09-11T06:37:28.222Z,74.02
2018-09-11T06:38:28.269Z,73.52
2018-09-11T06:39:28.206Z,73.72
2018-09-11T06:40:28.187Z,73.79
2018-09-11T06:41:28.176Z,73.42
2018-09-11T06:42:28.170Z,73.38
2018-09-11T06:43:28.153Z,73.08
2018-09-11T06:44:28.187Z,73.08
2018-09-11T06:45:28.130Z,72.98
2018-09-11T06:46:28.119Z,72.78
2018-09-11T06:47:28.111Z,72.24
2018-09-11T06:48:28.099Z,72.27
2018-09-11T06:49:28.133Z,72.44
2018-09-11T06:50:28.074Z,72.64
2018-09-11T06:51:28.064Z,72.64
2018-09-11T06:52:28.053Z,72.11
2018-09-11T06:53:28.040Z,72.11
2018-09-11T06:54:28.075Z,71.91
2018-09-11T06:55:28.017Z,71.84
2018-09-11T06:56:28.007Z,71.70
2018-09-11T06:57:27.996Z,71.20
2018-09-11T06:58:27.984Z,71.00
2018-09-11T06:59:28.027Z,70.90
2018-09-11T07:00:28.005Z,71.00
2018-09-11T07:01:27.949Z,70.79
2018-09-11T07:02:27.962Z,70.66
2018-09-11T07:03:27.927Z,70.66
2018-09-11T07:04:27.965Z,70.76
2018-09-11T07:05:27.924Z,70.56
2018-09-11T07:06:27.914Z,70.36
2018-09-11T07:07:27.884Z,70.06
2018-09-11T07:08:27.895Z,69.32
2018-09-11T07:09:27.904Z,68.88
2018-09-11T07:10:27.847Z,68.38
2018-09-11T07:11:27.837Z,68.28
2018-09-11T07:12:27.824Z,68.28
2018-09-11T07:13:27.814Z,68.18
2018-09-11T07:14:27.891Z,67.98
2018-09-11T07:15:27.788Z,68.28
2018-09-11T07:16:27.786Z,68.38
2018-09-11T07:17:27.768Z,68.18
2018-09-11T07:18:27.756Z,68.88
2018-09-11T07:19:27.873Z,68.18
2018-09-11T07:20:27.910Z,68.98
2018-09-11T07:21:27.722Z,68.98
2018-09-11T07:22:27.711Z,68.98
2018-09-11T07:23:27.699Z,69.69
2018-09-11T07:24:27.736Z,69.49
2018-09-11T07:25:27.680Z,69.29
2018-09-11T07:26:27.666Z,69.79
2018-09-11T07:27:27.700Z,69.29
2018-09-11T07:28:27.650Z,67.38
2018-09-11T07:29:27.631Z,68.78
2018-09-11T07:30:27.741Z,67.68
2018-09-11T07:31:27.699Z,67.58
2018-09-11T07:32:27.627Z,67.55
2018-09-11T07:33:27.593Z,66.94
2018-09-11T07:34:27.597Z,66.51
2018-09-11T07:35:27.610Z,65.00
2018-09-11T07:36:27.596Z,66.31
2018-09-11T07:37:27.546Z,65.80
2018-09-11T07:38:27.532Z,65.84
2018-09-11T07:39:27.520Z,66.14
2018-09-11T07:40:27.560Z,66.14
2018-09-11T07:41:27.499Z,66.41
2018-09-11T07:42:27.488Z,66.74
2018-09-11T07:43:27.475Z,66.41
2018-09-11T07:44:27.464Z,66.51
2018-09-11T07:45:27.513Z,65.91
2018-09-11T07:46:27.443Z,66.20
2018-09-11T07:47:27.429Z,66.11
2018-09-11T07:48:27.417Z,66.20
2018-09-11T07:49:27.407Z,66.51
2018-09-11T07:50:27.451Z,66.31
2018-09-11T07:51:27.386Z,66.41
2018-09-11T07:52:27.386Z,65.37
2018-09-11T07:53:27.361Z,64.94
2018-09-11T07:54:27.349Z,63.67
2018-09-11T07:55:27.341Z,62.04
2018-09-11T07:56:27.373Z,61.71
2018-09-11T07:57:27.326Z,61.41
2018-09-11T07:58:27.308Z,61.41
2018-09-11T07:59:27.297Z,60.68
2018-09-11T08:00:27.283Z,59.85
2018-09-11T08:01:27.316Z,59.95
2018-09-11T08:02:27.268Z,59.32
2018-09-11T08:03:27.259Z,58.29
2018-09-11T08:04:27.245Z,57.97
2018-09-11T08:05:27.228Z,57.01
2018-09-11T08:06:27.273Z,56.11
2018-09-11T08:07:27.204Z,56.51
2018-09-11T08:08:27.194Z,56.44
2018-09-11T08:09:27.235Z,56.41
2018-09-11T08:10:27.170Z,55.56
2018-09-11T08:11:27.205Z,54.86
2018-09-11T08:12:27.150Z,56.61
2018-09-11T08:13:27.138Z,57.04
2018-09-11T08:14:27.127Z,57.34
2018-09-11T08:15:27.116Z,56.41
2018-09-11T08:16:27.161Z,56.31
2018-09-11T08:17:27.092Z,56.64
2018-09-11T08:18:27.081Z,56.37
2018-09-11T08:19:27.073Z,58.82
2018-09-11T08:20:27.058Z,59.22
2018-09-11T08:21:27.090Z,59.85
2018-09-11T08:22:27.036Z,59.05
2018-09-11T08:23:27.025Z,59.45
2018-09-11T08:24:27.018Z,59.05
2018-09-11T08:25:27.002Z,59.35
2018-09-11T08:26:27.036Z,58.85
2018-09-11T08:27:26.978Z,58.75
2018-09-11T08:28:26.976Z,59.12
2018-09-11T08:29:27.022Z,58.82
2018-09-11T08:30:26.951Z,58.52
2018-09-11T08:31:26.980Z,57.79
2018-09-11T08:32:26.920Z,57.19
2018-09-11T08:33:26.907Z,56.70
2018-09-11T08:34:26.896Z,56.59
2018-09-11T08:35:26.886Z,55.29
2018-09-11T08:36:26.924Z,56.07
2018-09-11T08:37:26.867Z,56.09
2018-09-11T08:38:26.903Z,56.20
2018-09-11T08:39:26.843Z,56.07
2018-09-11T08:40:26.831Z,55.57
2018-09-11T08:41:26.864Z,55.36
2018-09-11T08:42:26.805Z,55.94
2018-09-11T08:43:26.798Z,55.87
2018-09-11T08:44:26.790Z,56.27
2018-09-11T08:45:26.773Z,56.04
2018-09-11T08:46:26.806Z,55.74
2018-09-11T08:47:26.749Z,55.62
2018-09-11T08:48:26.742Z,54.22
2018-09-11T08:49:26.730Z,54.22
2018-09-11T08:50:26.736Z,55.24
2018-09-11T08:51:26.749Z,55.34
2018-09-11T08:52:26.747Z,55.44
2018-09-11T08:53:26.680Z,55.11
2018-09-11T08:54:26.672Z,54.94
2018-09-11T08:55:26.658Z,55.71
2018-09-11T08:56:26.738Z,55.14
2018-09-11T08:57:26.637Z,54.91
2018-09-11T08:58:26.668Z,55.11
2018-09-11T08:59:26.632Z,54.99
2018-09-11T09:00:26.604Z,53.79
2018-09-11T09:01:26.636Z,54.29
2018-09-11T09:02:26.582Z,53.79
2018-09-11T09:03:26.570Z,53.56
2018-09-11T09:04:26.557Z,53.56
2018-09-11T09:05:26.546Z,53.17
2018-09-11T09:06:26.589Z,52.57
2018-09-11T09:07:26.525Z,52.84
2018-09-11T09:08:26.514Z,52.64
2018-09-11T09:09:26.506Z,52.07
2018-09-11T09:10:26.490Z,52.17
2018-09-11T09:11:26.479Z,52.37
2018-09-11T09:12:26.513Z,52.57
2018-09-11T09:13:26.472Z,52.64
2018-09-11T09:14:26.447Z,52.47
2018-09-11T09:15:26.450Z,52.55
2018-09-11T09:16:26.424Z,52.07
2018-09-11T09:17:26.462Z,52.14
2018-09-11T09:18:26.402Z,50.85
2018-09-11T09:19:26.392Z,51.05
2018-09-11T09:20:26.380Z,51.45
2018-09-11T09:21:26.367Z,50.95
2018-09-11T09:22:26.408Z,50.25
2018-09-11T09:23:26.347Z,49.23
2018-09-11T09:24:26.338Z,49.13
2018-09-11T09:25:26.323Z,49.03
2018-09-11T09:26:26.312Z,48.31
2018-09-11T09:27:26.379Z,48.31
2018-09-11T09:28:26.288Z,48.49
2018-09-11T09:29:26.278Z,47.54
2018-09-11T09:30:26.267Z,46.83
2018-09-11T09:31:26.255Z,46.01
2018-09-11T09:32:26.291Z,46.19
2018-09-11T09:33:26.233Z,46.19
2018-09-11T09:34:26.225Z,46.08
2018-09-11T09:35:26.232Z,46.08
2018-09-11T09:36:26.206Z,46.08
2018-09-11T09:37:26.238Z,46.31
2018-09-11T09:38:26.176Z,46.83
2018-09-11T09:39:26.166Z,47.14
2018-09-11T09:40:26.164Z,47.54
2018-09-11T09:41:26.144Z,47.54
2018-09-11T09:42:26.180Z,47.54
2018-09-11T09:43:26.132Z,47.62
2018-09-11T09:44:26.109Z,47.22
2018-09-11T09:45:26.101Z,47.02
2018-09-11T09:46:26.091Z,47.64
2018-09-11T09:47:26.120Z,47.17
2018-09-11T09:48:26.064Z,47.56
2018-09-11T09:49:26.054Z,47.56
2018-09-11T09:50:26.066Z,47.14
2018-09-11T09:51:26.043Z,46.87
2018-09-11T09:52:26.065Z,46.57
2018-09-11T09:53:26.008Z,46.65
2018-09-11T09:54:25.999Z,46.84
2018-09-11T09:55:25.990Z,46.87
2018-09-11T09:56:26.022Z,46.87
2018-09-11T09:57:26.014Z,46.97
2018-09-11T09:58:25.953Z,47.07
2018-09-11T09:59:25.941Z,46.55
2018-09-11T10:00:25.935Z,46.77
2018-09-11T10:01:25.920Z,46.67
2018-09-11T10:02:25.960Z,46.45
2018-09-11T10:03:25.900Z,47.17
2018-09-11T10:04:25.886Z,47.05
2018-09-11T10:05:25.878Z,47.14
2018-09-11T10:06:25.865Z,46.35
2018-09-11T10:07:25.899Z,46.35
2018-09-11T10:08:25.846Z,46.53
2018-09-11T10:09:25.833Z,46.13
2018-09-11T10:10:25.825Z,46.25
2018-09-11T10:11:25.812Z,45.36
2018-09-11T10:12:25.842Z,45.95
2018-09-11T10:13:25.787Z,45.65
2018-09-11T10:14:25.782Z,45.06
2018-09-11T10:15:25.766Z,45.06
2018-09-11T10:16:25.755Z,45.15
2018-09-11T10:17:25.843Z,45.63
2018-09-11T10:18:25.732Z,44.71
2018-09-11T10:19:25.740Z,45.43
2018-09-11T10:20:25.713Z,44.74
2018-09-11T10:21:25.699Z,44.93
2018-09-11T10:22:25.739Z,44.93
2018-09-11T10:23:25.676Z,44.74
2018-09-11T10:24:25.666Z,44.84
2018-09-11T10:25:25.679Z,45.11
2018-09-11T10:26:25.641Z,45.01
2018-09-11T10:27:25.688Z,44.71
2018-09-11T10:28:25.619Z,45.71
2018-09-11T10:29:25.610Z,44.71
2018-09-11T10:30:25.599Z,44.81
2018-09-11T10:31:25.586Z,44.92
2018-09-11T10:32:25.619Z,44.81
2018-09-11T10:33:25.564Z,44.59
2018-09-11T10:34:25.564Z,44.70
2018-09-11T10:35:25.544Z,44.40
2018-09-11T10:36:25.530Z,45.19
2018-09-11T10:37:25.566Z,44.40
2018-09-11T10:38:25.507Z,44.57
2018-09-11T10:39:25.525Z,44.49
2018-09-11T10:40:25.485Z,45.19
2018-09-11T10:41:25.481Z,45.19
2018-09-11T10:42:25.509Z,44.48
2018-09-11T10:43:25.451Z,44.37
2018-09-11T10:44:25.438Z,43.56
2018-09-11T10:45:25.428Z,43.44
2018-09-11T10:46:25.423Z,42.65
2018-09-11T10:47:25.453Z,41.66
2018-09-11T10:48:25.398Z,42.41
2018-09-11T10:49:25.385Z,42.31
2018-09-11T10:50:25.376Z,41.30
2018-09-11T10:51:25.363Z,40.01
2018-09-11T10:52:25.396Z,40.80
2018-09-11T10:53:25.340Z,40.92
2018-09-11T10:54:25.331Z,41.22
2018-09-11T10:55:25.318Z,40.92
2018-09-11T10:56:25.309Z,41.22
2018-09-11T10:57:25.345Z,41.24
2018-09-11T10:58:25.326Z,40.92
2018-09-11T10:59:25.275Z,40.92
2018-09-11T11:00:25.267Z,41.22
2018-09-11T11:01:25.256Z,40.94
2018-09-11T11:02:25.303Z,40.74
2018-09-11T11:03:25.233Z,41.33
2018-09-11T11:04:25.221Z,40.94
2018-09-11T11:05:25.212Z,42.15
2018-09-11T11:06:25.196Z,41.53
2018-09-11T11:07:25.184Z,40.76
2018-09-11T11:08:25.236Z,40.56
2018-09-11T11:09:25.165Z,40.76
2018-09-11T11:10:25.152Z,41.36
2018-09-11T11:11:25.141Z,41.06
2018-09-11T11:12:25.130Z,41.26
2018-09-11T11:13:25.167Z,40.76
2018-09-11T11:14:25.132Z,40.07
2018-09-11T11:15:25.098Z,38.98
2018-09-11T11:16:25.084Z,38.50
2018-09-11T11:17:25.078Z,39.47
2018-09-11T11:18:25.108Z,38.88
2018-09-11T11:19:25.054Z,39.77
2018-09-11T11:20:25.041Z,39.47
2018-09-11T11:21:25.031Z,40.17
2018-09-11T11:22:25.023Z,39.87
2018-09-11T11:23:25.053Z,40.26
2018-09-11T11:24:25.011Z,40.17
2018-09-11T11:25:24.988Z,39.77
2018-09-11T11:26:25.051Z,39.77
2018-09-11T11:27:24.967Z,39.57
2018-09-11T11:28:25.000Z,39.97
2018-09-11T11:29:24.941Z,39.75
2018-09-11T11:30:24.931Z,39.65
2018-09-11T11:31:24.923Z,39.45
2018-09-11T11:32:24.912Z,38.76
2018-09-11T11:33:24.946Z,39.17
2018-09-11T11:34:24.886Z,38.98
2018-09-11T11:35:24.875Z,38.68
2018-09-11T11:36:25.057Z,38.78
2018-09-11T11:37:25.026Z,38.38
2018-09-11T11:38:24.907Z,39.07
2018-09-11T11:39:24.831Z,38.26
2018-09-11T11:40:24.819Z,38.36
2018-09-11T11:41:24.812Z,38.56
2018-09-11T11:42:24.868Z,38.26
2018-09-11T11:43:24.831Z,38.36
2018-09-11T11:44:24.781Z,38.07
2018-09-11T11:45:24.766Z,38.34
2018-09-11T11:46:24.754Z,38.34
2018-09-11T11:47:24.741Z,37.96
2018-09-11T11:48:24.824Z,38.34
2018-09-11T11:49:24.724Z,38.64
2018-09-11T11:50:24.708Z,37.75
2018-09-11T11:51:24.730Z,38.34
2018-09-11T11:52:24.688Z,38.34
2018-09-11T11:53:24.719Z,38.44
2018-09-11T11:54:24.712Z,37.87
2018-09-11T11:55:24.721Z,39.14
2018-09-11T11:56:24.644Z,39.14
2018-09-11T11:57:24.631Z,37.95
2018-09-11T11:58:24.667Z,38.44
2018-09-11T11:59:24.610Z,37.62
2018-09-11T12:00:24.596Z,36.27
2018-09-11T12:01:24.603Z,35.45
2018-09-11T12:02:24.579Z,35.14
2018-09-11T12:03:24.611Z,35.31
2018-09-11T12:04:24.553Z,34.28
2018-09-11T12:05:24.541Z,33.08
2018-09-11T12:06:24.531Z,32.56
2018-09-11T12:07:24.519Z,32.46
2018-09-11T12:08:24.556Z,32.04
2018-09-11T12:09:24.497Z,31.74
2018-09-11T12:10:24.490Z,30.95
2018-09-11T12:11:24.478Z,31.51
2018-09-11T12:12:24.464Z,30.40
2018-09-11T12:13:24.502Z,29.90
2018-09-11T12:14:24.461Z,29.58
2018-09-11T12:15:24.432Z,29.27
2018-09-11T12:16:24.422Z,29.46
2018-09-11T12:17:24.411Z,28.38
2018-09-11T12:18:24.446Z,29.27
2018-09-11T12:19:24.395Z,28.86
2018-09-11T12:20:24.385Z,29.69
2018-09-11T12:21:24.367Z,30.68
2018-09-11T12:22:24.364Z,30.10
2018-09-11T12:23:24.395Z,29.60
2018-09-11T12:24:24.337Z,30.00
2018-09-11T12:25:24.390Z,29.90
2018-09-11T12:26:24.404Z,29.70
2018-09-11T12:27:24.309Z,29.30
2018-09-11T12:28:24.345Z,28.71
2018-09-11T12:29:24.284Z,29.07
2018-09-11T12:30:24.276Z,27.87
2018-09-11T12:31:24.267Z,28.05
2018-09-11T12:32:24.251Z,26.38
2018-09-11T12:33:24.292Z,25.50
2018-09-11T12:34:24.231Z,26.37
2018-09-11T12:35:24.222Z,25.86
2018-09-11T12:36:24.213Z,25.49
2018-09-11T12:37:24.202Z,26.46
2018-09-11T12:38:24.252Z,26.27
2018-09-11T12:39:24.185Z,26.76
2018-09-11T12:40:24.168Z,26.53
2018-09-11T12:41:24.159Z,26.92
2018-09-11T12:42:24.149Z,27.05
2018-09-11T12:43:24.137Z,27.87
2018-09-11T12:44:24.173Z,29.08
2018-09-11T12:45:24.120Z,30.10
2018-09-11T12:46:24.472Z,30.30
2018-09-11T12:47:24.368Z,30.52
2018-09-11T12:48:24.241Z,30.93
2018-09-11T12:49:24.125Z,30.55
2018-09-11T12:50:24.063Z,30.17
2018-09-11T12:51:24.052Z,30.28
2018-09-11T12:52:24.073Z,30.59
2018-09-11T12:53:24.035Z,30.22
2018-09-11T12:54:24.068Z,31.60
2018-09-11T12:55:24.010Z,31.32
2018-09-11T12:56:23.998Z,32.62
2018-09-11T12:57:23.989Z,31.26
2018-09-11T12:58:23.979Z,32.14
2018-09-11T12:59:24.011Z,32.64
2018-09-11T13:00:23.957Z,32.34
2018-09-11T13:01:23.943Z,32.45
2018-09-11T13:02:24.000Z,32.06
2018-09-11T13:03:23.923Z,33.04
2018-09-11T13:04:23.958Z,33.56
2018-09-11T13:05:23.900Z,33.16
2018-09-11T13:06:23.893Z,32.09
2018-09-11T13:07:23.882Z,31.99
2018-09-11T13:08:23.867Z,32.59
2018-09-11T13:09:23.959Z,32.59
2018-09-11T13:10:23.853Z,31.90
2018-09-11T13:11:23.839Z,31.90
2018-09-11T13:12:23.826Z,31.91
2018-09-11T13:13:23.822Z,32.68
2018-09-11T13:14:23.847Z,32.78
2018-09-11T13:15:23.791Z,32.59
2018-09-11T13:16:23.784Z,33.08
2018-09-11T13:17:23.770Z,33.37
2018-09-11T13:18:23.767Z,32.49
2018-09-11T13:19:23.794Z,32.68
2018-09-11T13:20:23.738Z,32.40
2018-09-11T13:21:23.727Z,32.50
2018-09-11T13:22:23.714Z,33.00
2018-09-11T13:23:23.703Z,32.60
2018-09-11T13:24:23.741Z,33.20
2018-09-11T13:25:23.787Z,32.90
2018-09-11T13:26:23.670Z,33.79
2018-09-11T13:27:23.661Z,33.09
2018-09-11T13:28:23.648Z,32.90
2018-09-11T13:29:23.685Z,33.31
2018-09-11T13:30:23.628Z,33.31
2018-09-11T13:31:23.616Z,33.51
2018-09-11T13:32:23.607Z,33.51
2018-09-11T13:33:23.592Z,33.51
2018-09-11T13:34:23.628Z,33.80
2018-09-11T13:35:23.582Z,33.61
2018-09-11T13:36:23.576Z,33.90
2018-09-11T13:37:23.549Z,33.49
2018-09-11T13:38:23.566Z,33.98
2018-09-11T13:39:23.576Z,34.50
2018-09-11T13:40:23.515Z,34.38
2018-09-11T13:41:23.515Z,34.50
2018-09-11T13:42:23.499Z,34.69
2018-09-11T13:43:23.493Z,34.79
2018-09-11T13:44:23.530Z,34.89
2018-09-11T13:45:23.573Z,34.59
2018-09-11T13:46:23.464Z,35.09
2018-09-11T13:47:23.597Z,34.69
2018-09-11T13:48:23.465Z,34.69
2018-09-11T13:49:23.468Z,34.99
2018-09-11T13:50:23.421Z,34.50
2018-09-11T13:51:23.393Z,34.78
2018-09-11T13:52:23.383Z,34.58